createdAt,value
2022-09-01T00:00:49.413Z,20.65
2022-09-01T00:02:27.065Z,20.66
2022-09-01T00:04:03.221Z,20.67
2022-09-01T00:05:36.483Z,20.67
2022-09-01T00:07:12.779Z,20.66
2022-09-01T00:08:46.211Z,20.58
2022-09-01T00:10:19.447Z,20.57
2022-09-01T00:11:55.408Z,20.54
2022-09-01T00:13:27.734Z,20.53
2022-09-01T00:15:01.145Z,20.53
2022-09-01T00:16:34.882Z,20.47
2022-09-01T00:18:08.174Z,20.52
2022-09-01T00:19:41.595Z,20.53
2022-09-01T00:21:14.195Z,20.53
2022-09-01T00:22:49.398Z,20.53
2022-09-01T00:24:23.227Z,20.50
2022-09-01T00:25:56.844Z,20.52
2022-09-01T00:27:30.912Z,20.49
2022-09-01T00:29:04.921Z,20.46
2022-09-01T00:30:38.251Z,20.40
2022-09-01T00:32:11.758Z,20.36
2022-09-01T00:33:44.281Z,20.38
2022-09-01T00:35:20.318Z,20.40
2022-09-01T00:36:53.712Z,20.41
2022-09-01T00:38:29.214Z,20.43
2022-09-01T00:40:02.706Z,20.44
2022-09-01T00:41:39.361Z,20.46
2022-09-01T00:43:14.959Z,20.41
2022-09-01T00:44:48.620Z,20.39
2022-09-01T00:46:23.355Z,20.45
2022-09-01T00:48:05.933Z,20.46
2022-09-01T00:49:43.169Z,20.40
2022-09-01T00:51:16.783Z,20.48
2022-09-01T00:52:53.371Z,20.44
2022-09-01T00:54:32.386Z,20.41
2022-09-01T00:56:06.901Z,20.37
2022-09-01T00:57:41.484Z,20.32
2022-09-01T00:59:17.202Z,20.37
2022-09-01T01:00:53.232Z,20.36
2022-09-01T01:02:27.122Z,20.33
2022-09-01T01:04:02.428Z,20.34
2022-09-01T01:05:40.408Z,20.29
2022-09-01T01:07:14.392Z,20.29
2022-09-01T01:08:59.148Z,20.28
2022-09-01T01:10:37.900Z,20.25
2022-09-01T01:12:18.603Z,20.25
2022-09-01T01:13:52.893Z,20.22
2022-09-01T01:15:26.199Z,20.21
2022-09-01T01:17:00.278Z,20.22
2022-09-01T01:18:33.613Z,20.20
2022-09-01T01:20:27.041Z,20.14
2022-09-01T01:22:19.000Z,20.12
2022-09-01T01:23:58.553Z,20.03
2022-09-01T01:25:34.743Z,19.98
2022-09-01T01:27:08.028Z,19.91
2022-09-01T01:28:44.439Z,19.87
2022-09-01T01:30:20.854Z,19.86
2022-09-01T01:31:54.770Z,19.84
2022-09-01T01:33:31.162Z,19.81
2022-09-01T01:35:06.264Z,19.80
2022-09-01T01:36:41.696Z,19.75
2022-09-01T01:38:23.084Z,19.72
2022-09-01T01:39:56.624Z,19.62
2022-09-01T01:41:34.281Z,19.60
2022-09-01T01:43:07.708Z,19.55
2022-09-01T01:44:42.679Z,19.53
2022-09-01T01:46:19.264Z,19.48
2022-09-01T01:47:55.830Z,19.47
2022-09-01T01:49:31.204Z,19.45
2022-09-01T01:51:06.045Z,19.45
2022-09-01T01:52:39.330Z,19.42
2022-09-01T01:54:20.191Z,19.41
2022-09-01T01:55:54.818Z,19.42
2022-09-01T01:57:32.017Z,19.38
2022-09-01T01:59:05.434Z,19.38
2022-09-01T02:00:44.906Z,19.34
2022-09-01T02:02:18.653Z,19.34
2022-09-01T02:03:53.061Z,19.23
2022-09-01T02:05:29.739Z,19.16
2022-09-01T02:07:03.163Z,19.17
2022-09-01T02:08:38.541Z,19.13
2022-09-01T02:10:12.437Z,19.15
2022-09-01T02:11:45.990Z,19.16
2022-09-01T02:13:31.523Z,19.16
2022-09-01T02:15:07.424Z,19.17
2022-09-01T02:16:41.383Z,19.18
2022-09-01T02:18:18.219Z,19.19
2022-09-01T02:19:57.003Z,19.20
2022-09-01T02:21:30.887Z,19.22
2022-09-01T02:23:09.414Z,19.23
2022-09-01T02:24:48.169Z,19.23
2022-09-01T02:26:26.461Z,19.22
2022-09-01T02:28:00.590Z,19.20
2022-09-01T02:29:40.108Z,19.18
2022-09-01T02:31:17.040Z,19.14
2022-09-01T02:32:50.854Z,19.12
2022-09-01T02:34:25.967Z,19.11
2022-09-01T02:36:01.718Z,19.10
2022-09-01T02:37:34.950Z,19.09
2022-09-01T02:39:08.617Z,19.05
2022-09-01T02:40:45.550Z,19.09
2022-09-01T02:42:22.480Z,19.07
2022-09-01T02:43:54.817Z,19.09
2022-09-01T02:45:30.031Z,19.09
2022-09-01T02:47:05.633Z,19.09
2022-09-01T02:48:46.262Z,19.06
2022-09-01T02:50:22.627Z,19.07
2022-09-01T02:52:01.652Z,19.05
2022-09-01T02:53:37.891Z,19.02
2022-09-01T02:55:12.019Z,19.00
2022-09-01T02:56:46.473Z,18.96
2022-09-01T02:58:20.260Z,18.94
2022-09-01T02:59:59.763Z,18.91
2022-09-01T03:01:34.901Z,18.93
2022-09-01T03:03:09.138Z,18.95
2022-09-01T03:04:42.917Z,18.97
2022-09-01T03:06:18.541Z,18.99
2022-09-01T03:07:57.997Z,18.98
2022-09-01T03:09:35.238Z,18.94
2022-09-01T03:11:13.219Z,18.95
2022-09-01T03:12:48.065Z,18.94
2022-09-01T03:14:24.355Z,18.87
2022-09-01T03:15:57.288Z,18.88
2022-09-01T03:17:31.989Z,18.88
2022-09-01T03:19:09.065Z,18.77
2022-09-01T03:20:46.485Z,18.75
2022-09-01T03:22:18.734Z,18.62
2022-09-01T03:23:54.386Z,18.53
2022-09-01T03:25:28.906Z,18.42
2022-09-01T03:27:02.319Z,18.40
2022-09-01T03:28:34.550Z,18.31
2022-09-01T03:30:09.177Z,18.22
2022-09-01T03:31:42.955Z,18.23
2022-09-01T03:33:18.917Z,18.31
2022-09-01T03:34:52.410Z,18.40
2022-09-01T03:36:26.328Z,18.43
2022-09-01T03:37:59.362Z,18.46
2022-09-01T03:39:32.656Z,18.45
2022-09-01T03:41:07.184Z,18.47
2022-09-01T03:42:41.696Z,18.45
2022-09-01T03:44:16.437Z,18.40
2022-09-01T03:45:50.435Z,18.41
2022-09-01T03:47:24.306Z,18.45
2022-09-01T03:49:02.411Z,18.51
2022-09-01T03:50:41.141Z,18.58
2022-09-01T03:52:14.839Z,18.60
2022-09-01T03:53:48.356Z,18.62
2022-09-01T03:55:24.335Z,18.59
2022-09-01T03:57:00.056Z,18.63
2022-09-01T03:58:34.145Z,18.68
2022-09-01T04:00:13.676Z,18.73
2022-09-01T04:01:48.075Z,18.73
2022-09-01T04:03:28.286Z,18.81
2022-09-01T04:05:07.790Z,18.85
2022-09-01T04:06:41.814Z,18.83
2022-09-01T04:08:15.266Z,18.92
2022-09-01T04:09:48.553Z,18.94
2022-09-01T04:11:24.359Z,18.98
2022-09-01T04:12:59.183Z,19.01
2022-09-01T04:14:32.671Z,19.03
2022-09-01T04:16:10.553Z,18.98
2022-09-01T04:18:13.453Z,19.01
2022-09-01T04:19:47.850Z,19.08
2022-09-01T04:21:22.655Z,19.10
2022-09-01T04:22:58.057Z,19.09
2022-09-01T04:24:33.670Z,19.11
2022-09-01T04:26:10.285Z,19.10
2022-09-01T04:27:45.207Z,19.15
2022-09-01T04:29:27.400Z,19.19
2022-09-01T04:31:05.908Z,19.10
2022-09-01T04:32:40.644Z,19.17
2022-09-01T04:34:14.223Z,19.18
2022-09-01T04:35:49.764Z,19.13
2022-09-01T04:37:24.640Z,19.11
2022-09-01T04:39:10.097Z,19.12
2022-09-01T04:40:45.611Z,19.14
2022-09-01T04:42:19.096Z,19.19
2022-09-01T04:43:57.199Z,19.24
2022-09-01T04:45:31.920Z,19.29
2022-09-01T04:47:06.085Z,19.31
2022-09-01T04:48:42.349Z,19.38
2022-09-01T04:50:22.185Z,19.52
2022-09-01T04:52:14.455Z,19.63
2022-09-01T04:53:49.826Z,19.67
2022-09-01T04:55:28.805Z,19.77
2022-09-01T04:57:02.411Z,19.88
2022-09-01T04:58:36.913Z,19.93
2022-09-01T05:00:22.421Z,20.00
2022-09-01T05:01:57.714Z,20.20
2022-09-01T05:03:32.206Z,20.41
2022-09-01T05:05:12.711Z,20.58
2022-09-01T05:06:49.381Z,20.76
2022-09-01T05:08:25.179Z,20.98
2022-09-01T05:10:07.033Z,21.23
2022-09-01T05:12:15.565Z,21.38
2022-09-01T05:13:57.954Z,21.37
2022-09-01T05:15:31.915Z,21.33
2022-09-01T05:17:10.263Z,21.28
2022-09-01T05:18:47.950Z,21.24
2022-09-01T05:20:22.178Z,21.30
2022-09-01T05:21:58.056Z,21.27
2022-09-01T05:23:32.835Z,21.09
2022-09-01T05:25:13.515Z,21.03
2022-09-01T05:26:51.247Z,21.04
2022-09-01T05:28:25.417Z,21.02
2022-09-01T05:30:00.850Z,21.06
2022-09-01T05:31:38.206Z,21.02
2022-09-01T05:33:11.811Z,20.94
2022-09-01T05:34:46.227Z,21.02
2022-09-01T05:36:23.100Z,20.99
2022-09-01T05:37:59.768Z,20.97
2022-09-01T05:39:33.147Z,20.98
2022-09-01T05:41:08.605Z,20.97
2022-09-01T05:42:42.598Z,20.99
2022-09-01T05:44:17.197Z,21.02
2022-09-01T05:46:06.102Z,21.12
2022-09-01T05:47:42.210Z,21.15
2022-09-01T05:49:18.986Z,21.16
2022-09-01T05:50:59.918Z,21.24
2022-09-01T05:52:35.360Z,21.36
2022-09-01T05:54:09.467Z,21.40
2022-09-01T05:55:45.266Z,21.51
2022-09-01T05:57:35.854Z,21.68
2022-09-01T05:59:26.546Z,21.62
2022-09-01T06:01:06.692Z,21.80
2022-09-01T06:02:41.165Z,21.79
2022-09-01T06:04:16.298Z,21.83
2022-09-01T06:05:52.921Z,21.88
2022-09-01T06:07:28.726Z,21.86
2022-09-01T06:09:05.225Z,21.94
2022-09-01T06:10:40.093Z,22.05
2022-09-01T06:12:18.458Z,22.14
2022-09-01T06:13:57.187Z,22.30
2022-09-01T06:15:30.887Z,22.20
2022-09-01T06:17:06.734Z,22.33
2022-09-01T06:18:41.290Z,22.45
2022-09-01T06:20:18.666Z,22.55
2022-09-01T06:21:52.189Z,22.95
2022-09-01T06:23:25.832Z,23.24
2022-09-01T06:25:02.728Z,23.57
2022-09-01T06:26:42.659Z,24.01
2022-09-01T06:28:17.313Z,24.52
2022-09-01T06:29:53.764Z,25.14
2022-09-01T06:31:34.101Z,25.69
2022-09-01T06:33:14.394Z,26.25
2022-09-01T06:34:53.507Z,26.73
2022-09-01T06:36:26.792Z,27.27
2022-09-01T06:38:01.953Z,27.52
2022-09-01T06:40:03.030Z,27.85
2022-09-01T06:41:38.998Z,28.17
2022-09-01T06:43:17.435Z,28.53
2022-09-01T06:44:57.732Z,28.54
2022-09-01T06:46:33.601Z,28.62
2022-09-01T06:48:14.298Z,28.45
2022-09-01T06:49:48.131Z,28.26
2022-09-01T06:51:27.002Z,28.22
2022-09-01T06:55:07.919Z,28.61
2022-09-01T06:56:44.818Z,28.70
2022-09-01T06:58:25.567Z,28.98
2022-09-01T07:00:07.848Z,29.25
2022-09-01T07:01:41.325Z,29.50
2022-09-01T07:03:15.819Z,29.71
2022-09-01T07:09:46.920Z,29.99
2022-09-01T07:13:30.878Z,29.76
2022-09-01T07:19:01.393Z,30.26
2022-09-01T07:21:02.847Z,30.41
2022-09-01T07:23:02.613Z,30.49
2022-09-01T07:24:31.699Z,30.37
2022-09-01T07:26:46.767Z,30.68
2022-09-01T07:28:22.009Z,30.87
2022-09-01T07:29:58.880Z,31.00
2022-09-01T07:33:54.019Z,31.25
2022-09-01T07:35:27.589Z,31.22
2022-09-01T07:38:47.809Z,31.34
2022-09-01T07:43:22.369Z,31.50
2022-09-01T07:45:27.869Z,31.65
2022-09-01T07:52:52.223Z,30.85
2022-09-01T07:54:25.724Z,30.85
2022-09-01T07:56:01.671Z,31.05
2022-09-01T07:57:35.793Z,31.36
2022-09-01T07:59:15.206Z,31.30
2022-09-01T08:01:00.253Z,31.60
2022-09-01T08:02:36.743Z,31.74
2022-09-01T08:04:10.487Z,31.97
2022-09-01T08:05:51.348Z,32.12
2022-09-01T08:07:24.971Z,32.42
2022-09-01T08:09:00.950Z,32.36
2022-09-01T08:10:41.122Z,32.24
2022-09-01T08:12:14.667Z,32.28
2022-09-01T08:13:55.619Z,32.40
2022-09-01T08:19:19.873Z,32.76
2022-09-01T08:21:22.454Z,33.01
2022-09-01T08:23:07.427Z,33.08
2022-09-01T08:24:43.194Z,33.01
2022-09-01T08:26:18.618Z,32.88
2022-09-01T08:27:59.724Z,33.03
2022-09-01T08:29:33.553Z,33.32
2022-09-01T08:31:11.447Z,33.37
2022-09-01T08:32:45.892Z,33.62
2022-09-01T08:34:21.063Z,33.81
2022-09-01T08:35:55.427Z,33.93
2022-09-01T08:37:29.629Z,33.94
2022-09-01T08:39:02.995Z,34.14
2022-09-01T08:40:38.937Z,34.31
2022-09-01T08:42:21.915Z,34.23
2022-09-01T08:44:07.783Z,34.34
2022-09-01T08:45:48.896Z,34.42
2022-09-01T08:47:39.375Z,34.31
2022-09-01T08:49:25.631Z,34.20
2022-09-01T08:51:34.093Z,34.27
2022-09-01T08:53:18.892Z,34.21
2022-09-01T08:54:55.340Z,34.23
2022-09-01T08:56:29.784Z,34.34
2022-09-01T08:58:05.941Z,34.58
2022-09-01T09:00:13.989Z,34.71
2022-09-01T09:01:59.950Z,34.64
2022-09-01T09:03:41.922Z,34.62
2022-09-01T09:05:29.427Z,34.67
2022-09-01T09:07:13.033Z,34.76
2022-09-01T09:08:55.155Z,34.38
2022-09-01T09:10:33.602Z,34.10
2022-09-01T09:12:31.105Z,33.86
2022-09-01T09:14:12.603Z,33.79
2022-09-01T09:15:53.043Z,33.91
2022-09-01T09:17:31.457Z,33.74
2022-09-01T09:19:11.090Z,33.92
2022-09-01T09:20:45.653Z,34.18
2022-09-01T09:22:21.604Z,34.08
2022-09-01T09:23:59.753Z,33.96
2022-09-01T09:25:34.389Z,34.13
2022-09-01T09:27:09.771Z,34.24
2022-09-01T09:28:44.336Z,34.30
2022-09-01T09:30:23.247Z,34.05
2022-09-01T09:32:39.468Z,33.41
2022-09-01T09:34:02.664Z,32.98
2022-09-01T09:35:39.114Z,33.00
2022-09-01T09:37:23.543Z,33.18
2022-09-01T09:39:20.856Z,32.84
2022-09-01T09:41:17.316Z,32.67
2022-09-01T09:43:05.695Z,32.58
2022-09-01T09:44:44.205Z,32.35
2022-09-01T09:46:27.631Z,32.14
2022-09-01T09:48:02.313Z,31.84
2022-09-01T09:49:42.354Z,31.68
2022-09-01T09:51:22.642Z,31.52
2022-09-01T09:53:15.437Z,31.40
2022-09-01T09:55:05.766Z,31.42
2022-09-01T09:56:41.645Z,31.34
2022-09-01T09:58:15.082Z,31.29
2022-09-01T09:59:59.138Z,31.21
2022-09-01T10:01:34.539Z,31.11
2022-09-01T10:03:14.360Z,30.98
2022-09-01T10:04:47.738Z,31.00
2022-09-01T10:06:33.337Z,30.94
2022-09-01T10:08:10.546Z,30.95
2022-09-01T10:09:43.772Z,31.02
2022-09-01T10:11:35.618Z,30.88
2022-09-01T10:13:13.830Z,30.69
2022-09-01T10:14:53.513Z,30.65
2022-09-01T10:16:32.075Z,30.71
2022-09-01T10:20:08.067Z,30.68
2022-09-01T10:21:46.671Z,30.74
2022-09-01T10:23:21.298Z,30.73
2022-09-01T10:24:55.110Z,30.44
2022-09-01T10:26:34.098Z,30.48
2022-09-01T10:28:13.179Z,30.30
2022-09-01T10:30:12.031Z,30.22
2022-09-01T10:31:45.362Z,30.23
2022-09-01T10:33:22.038Z,30.31
2022-09-01T10:34:59.745Z,30.37
2022-09-01T10:36:34.520Z,30.26
2022-09-01T10:38:11.957Z,30.38
2022-09-01T10:40:29.865Z,30.57
2022-09-01T10:42:07.757Z,30.66
2022-09-01T10:43:43.756Z,30.72
2022-09-01T10:45:32.128Z,30.75
2022-09-01T10:47:14.743Z,30.58
2022-09-01T10:48:54.989Z,30.63
2022-09-01T10:50:35.372Z,30.62
2022-09-01T10:52:13.217Z,30.69
2022-09-01T10:53:48.655Z,30.61
2022-09-01T10:55:26.618Z,30.56
2022-09-01T10:57:03.946Z,30.56
2022-09-01T11:01:11.264Z,30.70
2022-09-01T11:03:31.404Z,30.73
2022-09-01T11:05:22.442Z,30.72
2022-09-01T11:07:13.899Z,30.71
2022-09-01T11:08:58.051Z,30.75
2022-09-01T11:10:53.587Z,30.68
2022-09-01T11:12:45.387Z,30.60
2022-09-01T11:14:22.907Z,30.69
2022-09-01T11:16:00.326Z,30.62
2022-09-01T11:17:37.478Z,30.67
2022-09-01T11:19:44.462Z,30.83
2022-09-01T11:21:19.232Z,30.73
2022-09-01T11:23:03.567Z,30.74
2022-09-01T11:25:12.636Z,30.85
2022-09-01T11:26:49.040Z,30.88
2022-09-01T11:28:39.268Z,30.80
2022-09-01T11:30:20.292Z,30.85
2022-09-01T11:31:53.942Z,30.93
2022-09-01T11:33:47.878Z,30.96
2022-09-01T11:35:23.930Z,31.02
2022-09-01T11:37:01.290Z,31.02
2022-09-01T11:38:43.856Z,31.01
2022-09-01T11:40:23.988Z,31.02
2022-09-01T11:42:04.264Z,31.01
2022-09-01T11:43:38.114Z,31.10
2022-09-01T11:45:21.650Z,31.19
2022-09-01T11:47:03.299Z,31.30
2022-09-01T11:48:37.976Z,31.37
2022-09-01T11:50:20.709Z,31.39
2022-09-01T11:51:53.279Z,31.45
2022-09-01T11:53:28.384Z,31.38
2022-09-01T11:55:01.679Z,31.33
2022-09-01T11:56:35.411Z,31.34
2022-09-01T11:58:17.678Z,31.33
2022-09-01T11:59:52.073Z,31.42
2022-09-01T12:01:33.843Z,31.21
2022-09-01T12:03:24.932Z,31.14
2022-09-01T12:04:59.273Z,31.03
2022-09-01T12:06:32.530Z,30.92
2022-09-01T12:08:14.052Z,30.83
2022-09-01T12:09:49.197Z,30.86
2022-09-01T12:11:27.923Z,30.91
2022-09-01T12:13:07.176Z,31.07
2022-09-01T12:15:04.467Z,31.13
2022-09-01T12:16:38.197Z,31.23
2022-09-01T12:18:19.235Z,31.31
2022-09-01T12:19:51.570Z,31.42
2022-09-01T12:21:28.585Z,31.37
2022-09-01T12:23:02.916Z,31.28
2022-09-01T12:24:37.145Z,31.20
2022-09-01T12:26:14.352Z,31.14
2022-09-01T12:27:47.852Z,31.03
2022-09-01T12:29:23.405Z,30.92
2022-09-01T12:30:59.321Z,30.90
2022-09-01T12:32:32.765Z,31.01
2022-09-01T12:34:06.015Z,30.93
2022-09-01T12:35:39.508Z,30.83
2022-09-01T12:37:22.252Z,30.67
2022-09-01T12:38:56.815Z,30.47
2022-09-01T12:40:34.268Z,30.03
2022-09-01T12:42:11.440Z,29.68
2022-09-01T12:43:45.598Z,29.40
2022-09-01T12:45:44.124Z,29.23
2022-09-01T12:47:50.781Z,29.08
2022-09-01T12:49:28.807Z,28.85
2022-09-01T12:51:04.321Z,28.78
2022-09-01T12:52:46.686Z,28.70
2022-09-01T12:54:26.415Z,28.54
2022-09-01T12:56:21.042Z,28.26
2022-09-01T12:57:56.974Z,27.59
2022-09-01T12:59:37.321Z,26.90
2022-09-01T13:01:27.768Z,26.19
2022-09-01T13:03:14.301Z,25.53
2022-09-01T13:04:47.819Z,25.06
2022-09-01T13:06:21.122Z,24.75
2022-09-01T13:07:56.063Z,24.41
2022-09-01T13:09:30.228Z,24.12
2022-09-01T13:11:05.955Z,23.95
2022-09-01T13:12:42.345Z,23.71
2022-09-01T13:14:15.925Z,23.57
2022-09-01T13:15:51.464Z,23.43
2022-09-01T13:17:24.895Z,23.22
2022-09-01T13:19:21.819Z,23.07
2022-09-01T13:20:54.662Z,22.95
2022-09-01T13:22:28.162Z,22.86
2022-09-01T13:24:02.115Z,22.81
2022-09-01T13:25:36.122Z,22.79
2022-09-01T13:27:26.183Z,22.87
2022-09-01T13:29:00.747Z,22.91
2022-09-01T13:30:34.109Z,22.89
2022-09-01T13:32:24.517Z,22.98
2022-09-01T13:34:22.111Z,23.06
2022-09-01T13:35:54.249Z,23.16
2022-09-01T13:37:27.602Z,23.24
2022-09-01T13:39:01.084Z,23.32
2022-09-01T13:40:35.801Z,23.37
2022-09-01T13:42:09.249Z,23.36
2022-09-01T13:45:25.196Z,23.49
2022-09-01T13:47:00.520Z,23.47
2022-09-01T13:51:14.027Z,23.47
2022-09-01T13:52:23.910Z,23.36
2022-09-01T13:53:57.476Z,23.29
2022-09-01T13:55:33.223Z,23.38
2022-09-01T13:57:07.797Z,23.45
2022-09-01T13:58:41.237Z,23.49
2022-09-01T14:00:19.719Z,23.56
2022-09-01T14:01:53.222Z,23.61
2022-09-01T14:03:26.602Z,23.64
2022-09-01T14:05:00.449Z,23.63
2022-09-01T14:06:35.201Z,23.65
2022-09-01T14:08:09.377Z,23.51
2022-09-01T14:09:42.771Z,23.50
2022-09-01T14:11:20.057Z,23.49
2022-09-01T14:12:54.102Z,23.45
2022-09-01T14:15:09.847Z,23.57
2022-09-01T14:16:20.882Z,23.54
2022-09-01T14:17:56.398Z,23.55
2022-09-01T14:19:31.284Z,23.55
2022-09-01T14:21:04.859Z,23.48
2022-09-01T14:22:40.362Z,23.53
2022-09-01T14:24:13.775Z,23.51
2022-09-01T14:25:48.968Z,23.54
2022-09-01T14:27:22.699Z,23.55
2022-09-01T14:28:56.161Z,23.55
2022-09-01T14:30:32.116Z,23.52
2022-09-01T14:32:08.088Z,23.55
2022-09-01T14:33:42.338Z,23.54
2022-09-01T14:35:17.805Z,23.55
2022-09-01T14:36:53.495Z,23.57
2022-09-01T14:38:28.254Z,23.61
2022-09-01T14:40:00.967Z,23.59
2022-09-01T14:41:34.444Z,23.67
2022-09-01T14:43:10.761Z,23.68
2022-09-01T14:44:44.733Z,23.70
2022-09-01T14:46:19.451Z,23.76
2022-09-01T14:47:55.453Z,23.81
2022-09-01T14:49:33.689Z,23.81
2022-09-01T14:51:07.908Z,23.81
2022-09-01T14:52:41.347Z,23.77
2022-09-01T14:54:16.023Z,23.82
2022-09-01T14:55:51.457Z,23.81
2022-09-01T14:57:31.408Z,23.82
2022-09-01T14:59:11.106Z,23.84
2022-09-01T15:00:45.321Z,23.86
2022-09-01T15:02:18.866Z,23.90
2022-09-01T15:03:52.583Z,23.94
2022-09-01T15:05:26.505Z,23.96
2022-09-01T15:07:00.090Z,23.96
2022-09-01T15:08:33.465Z,24.03
2022-09-01T15:10:11.219Z,24.09
2022-09-01T15:11:49.459Z,24.16
2022-09-01T15:13:22.785Z,24.21
2022-09-01T15:14:56.139Z,24.21
2022-09-01T15:16:29.883Z,24.23
2022-09-01T15:18:03.993Z,24.21
2022-09-01T15:19:37.335Z,24.26
2022-09-01T15:21:19.963Z,24.31
2022-09-01T15:22:53.756Z,24.32
2022-09-01T15:24:27.030Z,24.36
2022-09-01T15:26:02.002Z,24.43
2022-09-01T15:27:38.306Z,24.45
2022-09-01T15:29:15.221Z,24.49
2022-09-01T15:30:48.755Z,24.54
2022-09-01T15:32:27.764Z,24.59
2022-09-01T15:34:03.919Z,24.60
2022-09-01T15:35:37.473Z,24.63
2022-09-01T15:37:10.876Z,24.65
2022-09-01T15:38:44.497Z,24.68
2022-09-01T15:40:19.009Z,24.66
2022-09-01T15:41:54.011Z,24.62
2022-09-01T15:43:28.760Z,24.64
2022-09-01T15:45:02.360Z,24.63
2022-09-01T15:46:39.160Z,24.63
2022-09-01T15:48:12.682Z,24.68
2022-09-01T15:49:46.111Z,24.73
2022-09-01T15:51:31.085Z,24.82
2022-09-01T15:53:08.593Z,24.85
2022-09-01T15:54:42.114Z,24.87
2022-09-01T15:56:16.887Z,24.87
2022-09-01T15:57:55.052Z,24.91
2022-09-01T15:59:29.246Z,24.92
2022-09-01T16:01:02.850Z,24.90
2022-09-01T16:02:36.155Z,24.91
2022-09-01T16:04:17.360Z,24.89
2022-09-01T16:05:52.026Z,24.84
2022-09-01T16:07:26.623Z,24.85
2022-09-01T16:09:00.106Z,24.82
2022-09-01T16:10:35.082Z,24.81
2022-09-01T16:12:10.272Z,24.76
2022-09-01T16:13:45.135Z,24.73
2022-09-01T16:15:20.668Z,24.71
2022-09-01T16:17:00.423Z,24.71
2022-09-01T16:18:41.762Z,24.72
2022-09-01T16:20:20.915Z,24.71
2022-09-01T16:22:07.106Z,24.69
2022-09-01T16:23:44.294Z,24.66
2022-09-01T16:25:24.049Z,24.64
2022-09-01T16:26:58.268Z,24.63
2022-09-01T16:28:35.811Z,24.61
2022-09-01T16:30:14.124Z,24.57
2022-09-01T16:31:52.621Z,24.49
2022-09-01T16:33:25.926Z,24.48
2022-09-01T16:35:01.719Z,24.47
2022-09-01T16:36:40.282Z,24.38
2022-09-01T16:38:23.015Z,24.34
2022-09-01T16:40:02.758Z,24.26
2022-09-01T16:41:48.400Z,24.16
2022-09-01T16:43:26.828Z,24.14
2022-09-01T16:45:12.497Z,24.11
2022-09-01T16:46:58.070Z,24.05
2022-09-01T16:48:40.881Z,24.00
2022-09-01T16:50:28.600Z,23.84
2022-09-01T16:52:06.960Z,23.77
2022-09-01T16:53:56.158Z,23.77
2022-09-01T16:55:36.135Z,23.75
2022-09-01T16:57:18.024Z,23.77
2022-09-01T16:59:03.285Z,23.80
2022-09-01T17:00:45.286Z,23.82
2022-09-01T17:02:35.991Z,23.77
2022-09-01T17:04:23.725Z,23.70
2022-09-01T17:06:11.831Z,23.73
2022-09-01T17:07:52.786Z,23.70
2022-09-01T17:09:33.710Z,23.67
2022-09-01T17:11:11.018Z,23.63
2022-09-01T17:12:49.139Z,23.61
2022-09-01T17:14:34.637Z,23.55
2022-09-01T17:16:12.286Z,23.52
2022-09-01T17:17:54.664Z,23.52
2022-09-01T17:19:29.199Z,23.48
2022-09-01T17:21:09.409Z,23.47
2022-09-01T17:22:50.285Z,23.41
2022-09-01T17:24:35.852Z,23.42
2022-09-01T17:26:18.397Z,23.39
2022-09-01T17:27:58.225Z,23.41
2022-09-01T17:29:36.570Z,23.38
2022-09-01T17:31:14.571Z,23.39
2022-09-01T17:33:08.822Z,23.37
2022-09-01T17:35:00.748Z,23.33
2022-09-01T17:36:46.827Z,23.29
2022-09-01T17:38:31.883Z,23.29
2022-09-01T17:40:15.793Z,23.22
2022-09-01T17:41:55.843Z,23.22
2022-09-01T17:43:43.371Z,23.17
2022-09-01T17:45:29.106Z,23.22
2022-09-01T17:47:12.738Z,23.22
2022-09-01T17:48:53.208Z,23.22
2022-09-01T17:50:39.763Z,23.19
2022-09-01T17:52:19.608Z,23.23
2022-09-01T17:54:00.205Z,23.22
2022-09-01T17:55:43.545Z,23.20
2022-09-01T17:57:24.930Z,23.19
2022-09-01T17:59:04.987Z,23.19
2022-09-01T18:00:44.614Z,23.16
2022-09-01T18:02:46.116Z,23.13
2022-09-01T18:04:48.206Z,23.10
2022-09-01T18:06:30.517Z,22.98
2022-09-01T18:08:25.827Z,23.04
2022-09-01T18:10:06.103Z,22.99
2022-09-01T18:11:47.977Z,22.91
2022-09-01T18:13:30.980Z,22.85
2022-09-01T18:15:23.937Z,22.85
2022-09-01T18:17:04.386Z,22.79
2022-09-01T18:18:40.691Z,22.77
2022-09-01T18:20:22.943Z,22.83
2022-09-01T18:21:58.944Z,22.86
2022-09-01T18:23:37.299Z,22.81
2022-09-01T18:25:18.686Z,22.77
2022-09-01T18:26:53.246Z,22.69
2022-09-01T18:28:26.629Z,22.63
2022-09-01T18:30:01.423Z,22.56
2022-09-01T18:31:57.354Z,22.51
2022-09-01T18:33:39.952Z,22.42
2022-09-01T18:35:25.264Z,22.43
2022-09-01T18:37:04.996Z,22.40
2022-09-01T18:38:46.152Z,22.38
2022-09-01T18:40:26.077Z,22.38
2022-09-01T18:42:12.360Z,22.35
2022-09-01T18:43:51.400Z,22.35
2022-09-01T18:45:34.374Z,22.36
2022-09-01T18:47:13.108Z,22.40
2022-09-01T18:49:00.316Z,22.37
2022-09-01T18:50:45.662Z,22.46
2022-09-01T18:52:32.750Z,22.47
2022-09-01T18:54:10.961Z,22.46
2022-09-01T18:55:52.436Z,22.44
2022-09-01T18:57:35.279Z,22.50
2022-09-01T18:59:21.047Z,22.52
2022-09-01T19:01:03.101Z,22.55
2022-09-01T19:02:58.279Z,22.49
2022-09-01T19:04:34.057Z,22.46
2022-09-01T19:06:20.184Z,22.46
2022-09-01T19:08:02.547Z,22.48
2022-09-01T19:09:41.022Z,22.44
2022-09-01T19:11:24.379Z,22.51
2022-09-01T19:13:05.399Z,22.55
2022-09-01T19:14:47.524Z,22.57
2022-09-01T19:16:36.425Z,22.56
2022-09-01T19:18:19.863Z,22.54
2022-09-01T19:19:58.555Z,22.47
2022-09-01T19:21:34.494Z,22.45
2022-09-01T19:23:13.870Z,22.45
2022-09-01T19:24:52.868Z,22.42
2022-09-01T19:26:28.312Z,22.42
2022-09-01T19:28:07.248Z,22.37
2022-09-01T19:29:48.188Z,22.30
2022-09-01T19:31:27.263Z,22.22
2022-09-01T19:33:03.756Z,22.25
2022-09-01T19:34:41.440Z,22.24
2022-09-01T19:36:20.470Z,22.18
2022-09-01T19:37:55.262Z,22.18
2022-09-01T19:39:31.988Z,22.20
2022-09-01T19:41:13.088Z,22.19
2022-09-01T19:42:53.553Z,22.18
2022-09-01T19:44:35.870Z,22.15
2022-09-01T19:46:22.440Z,22.12
2022-09-01T19:48:02.839Z,22.14
2022-09-01T19:49:45.300Z,22.15
2022-09-01T19:51:25.933Z,22.12
2022-09-01T19:53:06.312Z,22.09
2022-09-01T19:54:52.070Z,22.05
2022-09-01T19:56:30.349Z,22.02
2022-09-01T19:58:07.993Z,21.96
2022-09-01T19:59:51.225Z,21.92
2022-09-01T20:01:40.682Z,22.00
2022-09-01T20:03:18.783Z,22.01
2022-09-01T20:04:57.415Z,22.00
2022-09-01T20:06:34.892Z,22.04
2022-09-01T20:08:16.902Z,22.04
2022-09-01T20:09:57.693Z,22.06
2022-09-01T20:11:39.801Z,22.04
2022-09-01T20:13:32.047Z,22.04
2022-09-01T20:15:17.477Z,21.93
2022-09-01T20:16:52.437Z,21.95
2022-09-01T20:18:31.059Z,21.98
2022-09-01T20:20:09.579Z,21.98
2022-09-01T20:21:45.974Z,21.99
2022-09-01T20:23:29.027Z,22.03
2022-09-01T20:25:09.882Z,22.04
2022-09-01T20:26:50.785Z,22.04
2022-09-01T20:28:33.939Z,22.03
2022-09-01T20:30:09.428Z,21.96
2022-09-01T20:31:46.277Z,21.93
2022-09-01T20:33:36.661Z,21.95
2022-09-01T20:35:17.567Z,21.94
2022-09-01T20:36:55.611Z,22.01
2022-09-01T20:38:55.590Z,22.07
2022-09-01T20:40:34.854Z,22.09
2022-09-01T20:42:13.182Z,22.09
2022-09-01T20:43:49.284Z,22.15
2022-09-01T20:45:24.738Z,22.19
2022-09-01T20:46:59.119Z,22.14
2022-09-01T20:48:39.701Z,22.26
2022-09-01T20:50:15.350Z,22.21
2022-09-01T20:51:55.945Z,22.20
2022-09-01T20:53:45.253Z,22.25
2022-09-01T20:55:33.725Z,22.27
2022-09-01T20:57:23.130Z,22.29
2022-09-01T20:59:02.047Z,22.30
2022-09-01T21:00:46.287Z,22.27
2022-09-01T21:02:39.273Z,22.31
2022-09-01T21:07:35.804Z,22.27
2022-09-01T21:09:16.878Z,22.24
2022-09-01T21:10:57.335Z,22.21
2022-09-01T21:12:37.169Z,22.12
2022-09-01T21:14:23.397Z,22.17
2022-09-01T21:16:09.782Z,22.09
2022-09-01T21:17:50.996Z,22.12
2022-09-01T21:19:32.324Z,22.17
2022-09-01T21:21:12.612Z,22.10
2022-09-01T21:22:45.982Z,22.16
2022-09-01T21:24:20.723Z,22.11
2022-09-01T21:25:54.223Z,22.07
2022-09-01T21:27:33.272Z,22.05
2022-09-01T21:29:19.502Z,22.07
2022-09-01T21:30:55.198Z,22.02
2022-09-01T21:32:30.229Z,22.06
2022-09-01T21:34:03.498Z,22.08
2022-09-01T21:35:36.699Z,22.09
2022-09-01T21:37:10.134Z,22.08
2022-09-01T21:38:43.564Z,22.10
2022-09-01T21:40:20.058Z,22.05
2022-09-01T21:41:53.046Z,22.07
2022-09-01T21:43:32.375Z,22.06
2022-09-01T21:45:13.447Z,22.05
2022-09-01T21:46:46.770Z,22.07
2022-09-01T21:48:20.038Z,21.96
2022-09-01T21:49:53.538Z,22.01
2022-09-01T21:51:26.930Z,22.01
2022-09-01T21:53:00.126Z,21.95
2022-09-01T21:54:34.118Z,21.98